createdAt,value
2022-11-24T00:01:05.466Z,7.30
2022-11-24T00:03:32.778Z,7.15
2022-11-24T00:06:07.968Z,7.72
2022-11-24T00:08:36.040Z,7.05
2022-11-24T00:11:11.591Z,8.25
2022-11-24T00:13:39.800Z,8.60
2022-11-24T00:16:09.756Z,8.13
2022-11-24T00:18:37.250Z,8.25
2022-11-24T00:21:04.753Z,9.13
2022-11-24T00:23:32.322Z,11.40
2022-11-24T00:26:17.393Z,12.15
2022-11-24T00:28:45.395Z,10.40
2022-11-24T00:31:24.256Z,10.70
2022-11-24T00:33:53.734Z,11.05
2022-11-24T00:36:22.672Z,11.82
2022-11-24T00:38:58.288Z,10.02
2022-11-24T00:41:26.937Z,10.93
2022-11-24T00:43:54.776Z,10.60
2022-11-24T00:46:23.453Z,10.35
2022-11-24T00:48:51.234Z,10.13
2022-11-24T00:51:20.010Z,10.45
2022-11-24T00:53:47.620Z,10.05
2022-11-24T00:56:15.004Z,11.02
2022-11-24T00:58:42.241Z,11.98
2022-11-24T01:01:16.087Z,11.30
2022-11-24T01:03:43.560Z,11.27
2022-11-24T01:06:14.486Z,12.13
2022-11-24T01:08:42.125Z,12.38
2022-11-24T01:11:23.223Z,13.35
2022-11-24T01:13:54.574Z,10.88
2022-11-24T01:16:33.536Z,11.02
2022-11-24T01:19:01.292Z,11.40
2022-11-24T01:21:28.453Z,11.43
2022-11-24T01:23:56.052Z,12.35
2022-11-24T01:26:23.618Z,12.32
2022-11-24T01:28:56.022Z,11.88
2022-11-24T01:31:23.722Z,11.57
2022-11-24T01:33:51.307Z,12.30
2022-11-24T01:36:18.822Z,12.32
2022-11-24T01:38:46.041Z,12.63
2022-11-24T01:41:19.495Z,12.20
2022-11-24T01:43:47.421Z,12.65
2022-11-24T01:46:35.849Z,13.35
2022-11-24T01:49:09.235Z,13.93
2022-11-24T01:51:44.997Z,13.70
2022-11-24T01:54:18.946Z,14.43
2022-11-24T01:56:49.124Z,13.98
2022-11-24T01:59:20.071Z,14.75
2022-11-24T02:01:51.574Z,12.52
2022-11-24T02:04:24.207Z,14.25
2022-11-24T02:06:53.046Z,13.77
2022-11-24T02:09:28.712Z,14.43
2022-11-24T02:11:56.863Z,12.93
2022-11-24T02:14:25.228Z,13.90
2022-11-24T02:16:53.426Z,12.32
2022-11-24T02:19:55.506Z,12.80
2022-11-24T02:22:57.105Z,12.93
2022-11-24T02:25:27.083Z,14.02
2022-11-24T02:27:56.331Z,14.95
2022-11-24T02:30:24.286Z,14.02
2022-11-24T02:32:52.713Z,13.95
2022-11-24T02:35:19.996Z,12.57
2022-11-24T02:37:47.525Z,14.52
2022-11-24T02:40:25.258Z,13.85
2022-11-24T02:43:00.771Z,13.77
2022-11-24T02:45:29.585Z,12.65
2022-11-24T02:47:56.802Z,13.68
2022-11-24T02:50:24.387Z,13.25
2022-11-24T02:52:51.837Z,15.23
2022-11-24T02:55:20.536Z,13.95
2022-11-24T02:57:48.137Z,13.77
2022-11-24T03:00:15.980Z,13.73
2022-11-24T03:02:43.318Z,14.75
2022-11-24T03:05:13.034Z,14.23
2022-11-24T03:07:40.379Z,14.95
2022-11-24T03:10:08.608Z,14.65
2022-11-24T03:12:35.924Z,15.07
2022-11-24T03:15:03.828Z,15.18
2022-11-24T03:17:31.399Z,15.13
2022-11-24T03:20:04.657Z,15.63
2022-11-24T03:22:32.782Z,15.57
2022-11-24T03:25:00.067Z,14.60
2022-11-24T03:27:27.709Z,14.48
2022-11-24T03:29:54.888Z,14.75
2022-11-24T03:32:22.263Z,15.23
2022-11-24T03:34:49.444Z,19.90
2022-11-24T03:37:16.724Z,20.63
2022-11-24T03:39:44.029Z,19.20
2022-11-24T03:42:11.547Z,21.50
2022-11-24T03:44:38.677Z,20.17
2022-11-24T03:47:06.324Z,18.30
2022-11-24T03:49:35.250Z,17.25
2022-11-24T03:52:07.637Z,16.92
2022-11-24T03:54:35.869Z,16.98
2022-11-24T03:57:03.762Z,13.70
2022-11-24T03:59:30.980Z,13.98
2022-11-24T04:01:58.252Z,15.10
2022-11-24T04:04:25.484Z,14.05
2022-11-24T04:06:52.824Z,15.60
2022-11-24T04:09:20.375Z,15.90
2022-11-24T04:12:06.266Z,16.30
2022-11-24T04:14:33.758Z,16.35
2022-11-24T04:17:01.431Z,17.92
2022-11-24T04:19:28.974Z,18.23
2022-11-24T04:21:56.240Z,16.77
2022-11-24T04:24:23.796Z,19.20
2022-11-24T04:26:51.006Z,17.60
2022-11-24T04:29:18.230Z,16.25
2022-11-24T04:31:45.763Z,15.32
2022-11-24T04:34:13.325Z,14.75
2022-11-24T04:36:41.213Z,14.95
2022-11-24T04:39:24.421Z,15.93
2022-11-24T04:41:54.141Z,15.95
2022-11-24T04:44:21.757Z,15.50
2022-11-24T04:46:49.078Z,14.30
2022-11-24T04:49:16.407Z,14.65
2022-11-24T04:51:44.213Z,15.90
2022-11-24T04:54:13.047Z,15.25
2022-11-24T04:56:41.366Z,13.32
2022-11-24T04:59:12.752Z,14.35
2022-11-24T05:01:40.083Z,14.98
2022-11-24T05:04:07.669Z,13.38
2022-11-24T05:06:34.938Z,13.32
2022-11-24T05:09:02.533Z,14.02
2022-11-24T05:11:29.842Z,13.77
2022-11-24T05:13:57.332Z,15.70
2022-11-24T05:16:24.782Z,14.40
2022-11-24T05:18:52.057Z,13.98
2022-11-24T05:21:19.476Z,14.13
2022-11-24T05:23:46.683Z,14.95
2022-11-24T05:26:14.295Z,15.75
2022-11-24T05:28:41.559Z,14.80
2022-11-24T05:31:08.924Z,15.63
2022-11-24T05:33:37.140Z,14.98
2022-11-24T05:36:06.425Z,15.20
2022-11-24T05:38:34.202Z,14.15
2022-11-24T05:41:05.871Z,14.13
2022-11-24T05:43:33.343Z,14.15
2022-11-24T05:46:01.640Z,14.02
2022-11-24T05:48:29.315Z,13.10
2022-11-24T05:50:57.639Z,14.30
2022-11-24T05:53:26.573Z,13.90
2022-11-24T05:55:53.838Z,12.85
2022-11-24T05:58:21.676Z,13.77
2022-11-24T06:00:48.921Z,13.88
2022-11-24T06:03:16.127Z,15.02
2022-11-24T06:05:47.362Z,15.82
2022-11-24T06:08:14.878Z,15.63
2022-11-24T06:10:42.459Z,17.63
2022-11-24T06:13:10.063Z,16.42
2022-11-24T06:15:37.908Z,16.85
2022-11-24T06:18:05.386Z,19.00
2022-11-24T06:20:33.187Z,21.05
2022-11-24T06:23:01.367Z,22.85
2022-11-24T06:25:29.525Z,23.13
2022-11-24T06:27:57.216Z,24.63
2022-11-24T06:30:24.419Z,24.77
2022-11-24T06:32:55.706Z,25.60
2022-11-24T06:35:22.946Z,27.15
2022-11-24T06:37:50.220Z,28.05
2022-11-24T06:40:17.691Z,27.30
2022-11-24T06:42:51.574Z,29.08
2022-11-24T06:45:18.831Z,28.90
2022-11-24T06:47:46.110Z,29.60
2022-11-24T06:50:13.719Z,32.17
2022-11-24T06:52:40.893Z,31.70
2022-11-24T06:55:08.598Z,34.63
2022-11-24T06:57:35.947Z,32.25
2022-11-24T07:00:05.639Z,34.15
2022-11-24T07:02:33.243Z,31.65
2022-11-24T07:05:00.783Z,22.70
2022-11-24T07:07:27.990Z,19.60
2022-11-24T07:09:55.519Z,18.23
2022-11-24T07:12:24.452Z,18.25
2022-11-24T07:14:51.721Z,21.13
2022-11-24T07:17:18.804Z,23.27
2022-11-24T07:19:46.016Z,22.73
2022-11-24T07:22:13.430Z,23.80
2022-11-24T07:24:40.617Z,28.02
2022-11-24T07:27:07.809Z,40.92
2022-11-24T07:29:35.150Z,50.13
2022-11-24T07:32:05.733Z,50.50
2022-11-24T07:34:33.643Z,38.30
2022-11-24T07:37:01.258Z,31.85
2022-11-24T07:39:28.498Z,26.83
2022-11-24T07:41:55.622Z,24.98
2022-11-24T07:44:23.135Z,27.20
2022-11-24T07:46:51.591Z,25.25
2022-11-24T07:49:19.315Z,21.88
2022-11-24T07:51:46.539Z,23.08
2022-11-24T07:54:14.059Z,22.27
2022-11-24T07:56:41.608Z,18.23
2022-11-24T07:59:08.908Z,19.00
2022-11-24T08:01:36.120Z,21.23
2022-11-24T08:04:03.832Z,19.08
2022-11-24T08:06:38.639Z,18.58
2022-11-24T08:09:09.436Z,25.30
2022-11-24T08:11:37.042Z,19.25
2022-11-24T08:14:04.246Z,19.10
2022-11-24T08:16:32.364Z,24.30
2022-11-24T08:18:59.656Z,19.83
2022-11-24T08:21:27.204Z,19.35
2022-11-24T08:23:55.898Z,19.42
2022-11-24T08:26:25.159Z,21.48
2022-11-24T08:28:59.405Z,19.67
2022-11-24T08:31:33.598Z,21.15
2022-11-24T08:34:04.945Z,18.77
2022-11-24T08:36:32.451Z,17.55
2022-11-24T08:39:00.949Z,18.20
2022-11-24T08:41:29.300Z,18.95
2022-11-24T08:43:57.682Z,18.08
2022-11-24T08:46:25.207Z,21.25
2022-11-24T08:48:54.855Z,20.98
2022-11-24T08:51:25.198Z,23.73
2022-11-24T08:54:01.098Z,25.17
2022-11-24T08:56:29.989Z,27.33
2022-11-24T08:58:58.000Z,24.80
2022-11-24T09:01:25.952Z,24.27
2022-11-24T09:03:53.641Z,26.00
2022-11-24T09:06:25.155Z,25.63
2022-11-24T09:08:56.485Z,24.50
2022-11-24T09:11:24.790Z,21.00
2022-11-24T09:13:52.824Z,19.67
2022-11-24T09:16:22.896Z,18.15
2022-11-24T09:18:59.378Z,16.20
2022-11-24T09:21:27.072Z,20.00
2022-11-24T09:23:55.803Z,16.95
2022-11-24T09:26:26.822Z,16.77
2022-11-24T09:28:55.425Z,15.65
2022-11-24T09:31:28.444Z,16.52
2022-11-24T09:33:56.341Z,17.75
2022-11-24T09:36:25.915Z,15.93
2022-11-24T09:38:53.665Z,16.60
2022-11-24T09:41:32.670Z,17.63
2022-11-24T09:44:43.564Z,17.50
2022-11-24T09:47:43.669Z,19.67
2022-11-24T09:50:15.298Z,17.98
2022-11-24T09:53:05.688Z,18.65
2022-11-24T09:55:35.578Z,19.27
2022-11-24T09:58:26.439Z,19.17
2022-11-24T10:00:56.073Z,19.73
2022-11-24T10:03:42.051Z,18.35
2022-11-24T10:06:26.820Z,15.82
2022-11-24T10:08:59.886Z,17.45
2022-11-24T10:11:36.786Z,23.35
2022-11-24T10:14:32.285Z,22.77
2022-11-24T10:17:24.884Z,18.75
2022-11-24T10:20:06.556Z,17.80
2022-11-24T10:22:47.602Z,17.17
2022-11-24T10:25:30.784Z,15.65
2022-11-24T10:28:03.539Z,15.32
2022-11-24T10:30:31.311Z,16.58
2022-11-24T10:33:08.207Z,15.93
2022-11-24T10:35:39.892Z,16.27
2022-11-24T10:38:21.575Z,15.75
2022-11-24T10:40:58.048Z,15.57
2022-11-24T10:43:28.153Z,15.23
2022-11-24T10:46:17.055Z,16.25
2022-11-24T10:48:50.098Z,16.27
2022-11-24T10:51:41.902Z,17.25
2022-11-24T10:54:21.896Z,19.65
2022-11-24T10:56:52.112Z,21.05
2022-11-24T10:59:25.121Z,17.38
2022-11-24T11:01:53.651Z,15.75
2022-11-24T11:04:35.776Z,15.25
2022-11-24T11:07:16.447Z,16.00
2022-11-24T11:09:44.017Z,15.15
2022-11-24T11:15:31.139Z,16.42
2022-11-24T11:18:00.479Z,16.17
2022-11-24T11:20:33.840Z,15.00
2022-11-24T11:23:13.726Z,15.90
2022-11-24T11:25:41.434Z,17.10
2022-11-24T11:28:18.957Z,18.63
2022-11-24T11:31:20.283Z,19.40
2022-11-24T11:34:03.687Z,19.00
2022-11-24T11:36:37.815Z,19.95
2022-11-24T11:39:05.512Z,18.48
2022-11-24T11:41:40.560Z,22.75
2022-11-24T11:44:25.949Z,19.42
2022-11-24T11:46:56.035Z,17.75
2022-11-24T11:49:23.909Z,15.98
2022-11-24T11:52:04.153Z,17.00
2022-11-24T11:54:31.915Z,18.17
2022-11-24T11:57:36.318Z,19.38
2022-11-24T12:00:03.927Z,17.45
2022-11-24T12:03:09.064Z,17.92
2022-11-24T12:06:14.476Z,18.73
2022-11-24T12:09:17.890Z,17.70
2022-11-24T12:12:12.966Z,14.45
2022-11-24T12:15:04.584Z,14.57
2022-11-24T12:17:53.359Z,15.15
2022-11-24T12:20:39.004Z,18.08
2022-11-24T12:23:52.009Z,15.48
2022-11-24T12:26:22.937Z,15.50
2022-11-24T12:28:50.380Z,16.17
2022-11-24T12:31:53.182Z,17.40
2022-11-24T12:34:38.761Z,17.77
2022-11-24T12:37:40.515Z,17.08
2022-11-24T12:40:19.338Z,15.02
2022-11-24T12:42:46.899Z,16.02
2022-11-24T12:45:17.387Z,16.40
2022-11-24T12:48:24.499Z,16.30
2022-11-24T12:50:55.262Z,18.50
2022-11-24T12:53:28.732Z,16.77
2022-11-24T12:56:00.753Z,15.77
2022-11-24T12:58:50.627Z,14.82
2022-11-24T13:01:36.276Z,14.85
2022-11-24T13:04:37.231Z,14.60
2022-11-24T13:07:36.727Z,15.10
2022-11-24T13:10:46.900Z,14.52
2022-11-24T13:13:14.870Z,14.70
2022-11-24T13:18:53.615Z,15.70
2022-11-24T13:21:51.926Z,17.10
2022-11-24T13:24:20.198Z,20.58
2022-11-24T13:27:24.655Z,19.60
2022-11-24T13:29:53.312Z,17.17
2022-11-24T13:32:21.400Z,18.17
2022-11-24T13:34:55.249Z,16.70
2022-11-24T13:37:34.602Z,18.65
2022-11-24T13:40:12.581Z,16.15
2022-11-24T13:42:55.250Z,18.92
2022-11-24T13:45:49.455Z,18.55
2022-11-24T13:48:19.874Z,17.88
2022-11-24T13:50:50.193Z,18.48
2022-11-24T13:53:26.317Z,19.80
2022-11-24T13:56:00.966Z,20.15
2022-11-24T13:58:35.430Z,19.17
2022-11-24T14:01:19.651Z,20.00
2022-11-24T14:04:33.568Z,19.50
2022-11-24T14:07:09.028Z,18.27
2022-11-24T14:09:47.078Z,18.02
2022-11-24T14:12:34.366Z,20.38
2022-11-24T14:15:25.996Z,23.00
2022-11-24T14:17:53.181Z,21.35
2022-11-24T14:20:26.061Z,21.10
2022-11-24T14:22:54.426Z,20.52
2022-11-24T14:25:30.132Z,21.08
2022-11-24T14:27:57.781Z,20.77
2022-11-24T14:30:26.436Z,21.67
2022-11-24T14:33:01.686Z,21.35
2022-11-24T14:35:34.693Z,19.58
2022-11-24T14:38:04.373Z,17.70
2022-11-24T14:40:50.451Z,17.20
2022-11-24T14:43:22.818Z,16.95
2022-11-24T14:46:01.038Z,17.77
2022-11-24T14:48:34.248Z,16.80
2022-11-24T14:51:28.365Z,16.50
2022-11-24T14:54:01.843Z,17.05
2022-11-24T14:56:36.481Z,17.40
2022-11-24T14:59:04.591Z,17.02
2022-11-24T15:01:36.371Z,17.20
2022-11-24T15:04:38.777Z,19.38
2022-11-24T15:07:22.151Z,25.08
2022-11-24T15:12:30.872Z,17.75
2022-11-24T15:15:03.458Z,17.23
2022-11-24T15:17:31.561Z,18.48
2022-11-24T15:20:17.183Z,18.83
2022-11-24T15:22:45.243Z,17.38
2022-11-24T15:25:33.911Z,17.55
2022-11-24T15:28:01.507Z,17.90
2022-11-24T15:30:29.642Z,17.83
2022-11-24T15:32:58.641Z,18.05
2022-11-24T15:35:29.873Z,17.75
2022-11-24T15:37:57.308Z,17.45
2022-11-24T15:40:24.921Z,17.33
2022-11-24T15:42:59.659Z,16.20
2022-11-24T15:45:30.602Z,18.42
2022-11-24T15:47:57.761Z,19.65
2022-11-24T15:50:25.167Z,19.30
2022-11-24T15:52:52.526Z,18.27
2022-11-24T15:55:22.010Z,20.23
2022-11-24T15:57:49.743Z,15.98
2022-11-24T16:00:19.786Z,16.73
2022-11-24T16:02:47.627Z,16.20
2022-11-24T16:05:16.025Z,16.23
2022-11-24T16:07:43.807Z,14.10
2022-11-24T16:10:28.699Z,13.77
2022-11-24T16:12:56.194Z,14.48
2022-11-24T16:15:23.684Z,14.57
2022-11-24T16:17:50.884Z,14.85
2022-11-24T16:20:18.453Z,15.20
2022-11-24T16:22:46.022Z,16.58
2022-11-24T16:25:14.113Z,16.02
2022-11-24T16:27:41.981Z,14.00
2022-11-24T16:30:11.956Z,15.05
2022-11-24T16:32:39.524Z,14.52
2022-11-24T16:35:07.622Z,13.50
2022-11-24T16:37:35.520Z,15.00
2022-11-24T16:40:03.495Z,15.23
2022-11-24T16:42:31.204Z,15.00
2022-11-24T16:44:58.806Z,14.02
2022-11-24T16:47:26.028Z,15.45
2022-11-24T16:49:53.685Z,14.25
2022-11-24T16:52:21.558Z,14.18
2022-11-24T16:54:49.010Z,15.63
2022-11-24T16:57:19.591Z,14.50
2022-11-24T16:59:47.506Z,14.43
2022-11-24T17:02:14.852Z,13.68
2022-11-24T17:04:42.060Z,13.95
2022-11-24T17:07:09.435Z,15.15
2022-11-24T17:09:40.566Z,16.48
2022-11-24T17:12:08.184Z,15.25
2022-11-24T17:14:36.100Z,14.05
2022-11-24T17:17:07.026Z,15.55
2022-11-24T17:19:34.374Z,16.60
2022-11-24T17:22:02.111Z,18.15
2022-11-24T17:24:29.452Z,17.55
2022-11-24T17:26:56.831Z,17.02
2022-11-24T17:29:24.672Z,17.10
2022-11-24T17:31:51.911Z,17.25
2022-11-24T17:34:19.301Z,15.88
2022-11-24T17:36:46.872Z,13.55
2022-11-24T17:39:14.348Z,12.95
2022-11-24T17:41:41.918Z,14.15
2022-11-24T17:44:10.850Z,15.00
2022-11-24T17:46:39.071Z,13.82
2022-11-24T17:49:08.643Z,13.50
2022-11-24T17:51:35.781Z,12.55
2022-11-24T17:54:13.595Z,12.93
2022-11-24T17:56:50.287Z,12.90
2022-11-24T17:59:17.801Z,13.10
2022-11-24T18:01:45.082Z,12.55
2022-11-24T18:04:12.285Z,14.32
2022-11-24T18:06:39.921Z,14.48
2022-11-24T18:09:07.098Z,13.57
2022-11-24T18:11:34.380Z,14.93
2022-11-24T18:14:04.332Z,15.43
2022-11-24T18:16:34.385Z,14.10
2022-11-24T18:19:11.561Z,14.05
2022-11-24T18:21:44.050Z,15.82
2022-11-24T18:24:12.735Z,14.98
2022-11-24T18:26:41.929Z,14.57
2022-11-24T18:29:09.888Z,14.90
2022-11-24T18:31:38.157Z,14.90
2022-11-24T18:34:06.443Z,14.98
2022-11-24T18:36:34.978Z,15.60
2022-11-24T18:39:06.688Z,14.43
2022-11-24T18:41:34.298Z,13.90
2022-11-24T18:44:08.214Z,13.52
2022-11-24T18:49:03.070Z,14.65
2022-11-24T18:51:30.319Z,14.45
2022-11-24T18:54:02.418Z,15.05
2022-11-24T18:56:30.582Z,14.98
2022-11-24T18:58:57.972Z,14.65
2022-11-24T19:01:27.844Z,16.70
2022-11-24T19:03:58.239Z,16.63
2022-11-24T19:06:29.055Z,16.77
2022-11-24T19:08:56.735Z,15.30
2022-11-24T19:11:29.282Z,16.05
2022-11-24T19:13:57.422Z,15.27
2022-11-24T19:16:25.491Z,15.50
2022-11-24T19:18:54.210Z,16.63
2022-11-24T19:21:22.641Z,15.98
2022-11-24T19:23:50.623Z,16.33
2022-11-24T19:26:18.599Z,14.30
2022-11-24T19:28:46.244Z,15.50
2022-11-24T19:31:15.577Z,15.52
2022-11-24T19:33:43.473Z,15.30
2022-11-24T19:36:19.360Z,15.20
2022-11-24T19:38:51.720Z,14.93
2022-11-24T19:41:21.161Z,14.32
2022-11-24T19:43:49.106Z,15.15
2022-11-24T19:46:18.580Z,15.43
2022-11-24T19:48:50.375Z,14.63
2022-11-24T19:51:33.308Z,14.60
2022-11-24T19:54:00.961Z,14.80
2022-11-24T19:56:30.274Z,14.13
2022-11-24T19:58:57.617Z,14.05
2022-11-24T20:01:26.348Z,13.15
2022-11-24T20:04:08.256Z,12.93
2022-11-24T20:06:38.761Z,12.63
2022-11-24T20:09:08.881Z,13.63
2022-11-24T20:11:36.586Z,12.63
2022-11-24T20:14:04.604Z,13.23
2022-11-24T20:16:33.990Z,12.98
2022-11-24T20:19:07.793Z,13.77
2022-11-24T20:21:36.808Z,13.55
2022-11-24T20:24:05.509Z,13.50
2022-11-24T20:26:36.527Z,14.80
2022-11-24T20:29:04.632Z,13.75
2022-11-24T20:31:34.935Z,13.07
2022-11-24T20:34:03.781Z,14.63
2022-11-24T20:36:32.686Z,13.23
2022-11-24T20:39:01.711Z,14.55
2022-11-24T20:41:32.593Z,14.02
2022-11-24T20:44:02.245Z,12.93
2022-11-24T20:46:32.407Z,12.98
2022-11-24T20:49:00.466Z,12.82
2022-11-24T20:51:29.985Z,12.82
2022-11-24T20:54:00.128Z,12.48
2022-11-24T20:56:30.038Z,12.38
2022-11-24T20:58:57.829Z,12.85
2022-11-24T21:01:30.835Z,12.73
2022-11-24T21:03:59.820Z,11.52
2022-11-24T21:06:28.316Z,12.02
2022-11-24T21:09:00.504Z,12.77
2022-11-24T21:11:30.839Z,12.95
2022-11-24T21:13:58.384Z,12.82
2022-11-24T21:16:28.169Z,11.70
2022-11-24T21:18:58.109Z,12.65
2022-11-24T21:21:28.143Z,12.00
2022-11-24T21:23:55.389Z,12.20
2022-11-24T21:26:22.532Z,12.85
2022-11-24T21:28:50.132Z,11.25
2022-11-24T21:31:19.816Z,11.48
2022-11-24T21:33:49.149Z,11.60
2022-11-24T21:36:18.985Z,11.45
2022-11-24T21:38:53.542Z,12.68
2022-11-24T21:41:22.101Z,11.55
2022-11-24T21:43:50.317Z,11.45
2022-11-24T21:46:18.076Z,12.27
2022-11-24T21:48:46.495Z,12.43
2022-11-24T21:51:15.786Z,12.27
2022-11-24T21:53:44.796Z,12.13
2022-11-24T21:56:14.449Z,11.50
2022-11-24T21:58:45.862Z,12.50
2022-11-24T22:01:13.754Z,12.60
2022-11-24T22:03:41.143Z,12.52
2022-11-24T22:06:08.705Z,11.73
2022-11-24T22:08:36.349Z,13.05
2022-11-24T22:11:06.686Z,12.85
2022-11-24T22:13:34.567Z,12.05
2022-11-24T22:16:02.099Z,11.90
2022-11-24T22:18:38.225Z,12.52
2022-11-24T22:21:07.541Z,11.98
2022-11-24T22:23:36.036Z,12.13
2022-11-24T22:26:07.326Z,11.90
2022-11-24T22:28:35.653Z,11.07
2022-11-24T22:31:07.605Z,11.30
2022-11-24T22:33:35.700Z,11.32
2022-11-24T22:36:03.458Z,11.85
2022-11-24T22:38:31.449Z,10.63
2022-11-24T22:41:25.349Z,12.23
2022-11-24T22:43:53.885Z,11.17
2022-11-24T22:46:23.409Z,9.13
2022-11-24T22:48:54.520Z,10.57
2022-11-24T22:51:21.947Z,10.85
2022-11-24T22:53:51.323Z,10.70
2022-11-24T22:56:19.808Z,10.18
2022-11-24T22:58:47.615Z,9.60
2022-11-24T23:01:23.494Z,10.02
2022-11-24T23:03:56.091Z,10.02
2022-11-24T23:06:28.978Z,9.32
2022-11-24T23:08:56.974Z,9.45
2022-11-24T23:11:51.541Z,9.25
2022-11-24T23:14:18.795Z,9.73
2022-11-24T23:16:46.046Z,9.82
2022-11-24T23:19:13.357Z,9.73
2022-11-24T23:21:40.624Z,10.27
2022-11-24T23:24:09.038Z,10.10
2022-11-24T23:26:38.488Z,9.45
2022-11-24T23:29:06.376Z,9.30
2022-11-24T23:31:33.923Z,9.05
2022-11-24T23:34:03.034Z,8.88
2022-11-24T23:36:31.276Z,9.18
2022-11-24T23:39:11.501Z,8.50
2022-11-24T23:41:38.919Z,8.55
2022-11-24T23:44:06.475Z,8.55
2022-11-24T23:46:33.688Z,8.45
2022-11-24T23:49:00.899Z,8.30
2022-11-24T23:51:31.183Z,8.65
2022-11-24T23:54:00.172Z,10.63
2022-11-24T23:56:33.054Z,11.90
2022-11-24T23:59:01.942Z,11.55
